Time;durP1;ratioP1;P1;durP2;ratioP2;P2;SDS_P1;SDS_P2;PMS_P1;PMS_P2;Temp;Humidity;BMP_temperature;BMP_pressure;BME280_temperature;BME280_humidity;BME280_pressure;Samples;Min_cycle;Max_cycle;Signal;HPM_P1;HPM_P2
2022/08/02 00:02:34;;;;;;;;;;;;;;;24.96;45.50;95886.47;10257937;28;1856;-66
2022/08/02 00:07:34;;;;;;;;;;;;;;;24.96;45.63;95901.59;10258730;28;1930;-67
2022/08/02 00:12:35;;;;;;;;;;;;;;;24.97;45.65;95903.97;10235056;28;1915;-66
2022/08/02 00:17:36;;;;;;;;;;;;;;;24.97;45.70;95916.44;10244711;28;1887;-66
2022/08/02 00:22:37;;;;;;;;;;;;;;;24.96;45.48;95914.88;10240487;28;2050;-65
2022/08/02 00:27:37;;;;;;;;;;;;;;;24.96;45.67;95926.25;10242994;28;1908;-66
2022/08/02 00:32:38;;;;;;;;;;;;;;;24.96;45.49;95917.50;10246250;28;2002;-66
2022/08/02 00:37:39;;;;;;;;;;;;;;;24.96;45.65;95915.66;10236728;28;1887;-66
2022/08/02 00:42:39;;;;;;;;;;;;;;;24.96;45.60;95920.16;10256961;28;1873;-66
2022/08/02 00:47:40;;;;;;;;;;;;;;;24.97;45.33;95919.09;10257982;28;1942;-66
2022/08/02 00:52:40;;;;;;;;;;;;;;;24.96;45.55;95906.91;10245152;28;1964;-67
2022/08/02 00:57:40;;;;;;;;;;;;;;;24.95;45.47;95911.44;10242394;28;1889;-66
2022/08/02 01:02:41;;;;;;;;;;;;;;;24.94;45.62;95912.50;10235625;28;1999;-66
2022/08/02 01:07:41;;;;;;;;;;;;;;;24.95;45.48;95921.25;10249669;28;2020;-66
2022/08/02 01:12:41;;;;;;;;;;;;;;;24.95;45.63;95911.44;10256719;28;2004;-66
2022/08/02 01:18:04;;;;;;;;;;;;;;;24.96;45.60;95917.50;10242817;28;1897;-66
2022/08/02 01:23:19;;;;;;;;;;;;;;;24.96;45.58;95925.47;10252024;28;1988;-66
2022/08/02 01:28:32;;;;;;;;;;;;;;;24.96;45.44;95922.81;10256645;28;1973;-67
2022/08/02 01:34:01;;;;;;;;;;;;;;;24.95;45.48;95916.75;10240131;28;1972;-66
2022/08/02 01:39:04;;;;;;;;;;;;;;;24.95;45.74;95910.66;10233059;28;2106;-66
2022/08/02 01:44:24;;;;;;;;;;;;;;;24.94;45.40;95903.75;10242110;28;1944;-66
2022/08/02 01:49:36;;;;;;;;;;;;;;;24.95;45.58;95906.16;10254784;28;1950;-66
2022/08/02 01:54:36;;;;;;;;;;;;;;;24.95;45.56;95906.16;10243526;28;1969;-67
2022/08/02 01:59:37;;;;;;;;;;;;;;;24.95;45.75;95900.84;10254345;28;1895;-67
2022/08/02 02:04:37;;;;;;;;;;;;;;;24.96;45.66;95896.31;10247177;28;2358;-66
2022/08/02 02:09:38;;;;;;;;;;;;;;;24.96;45.52;95893.66;10244017;28;2015;-67
2022/08/02 02:14:38;;;;;;;;;;;;;;;24.95;45.36;95892.09;10254592;28;1926;-66
2022/08/02 02:19:39;;;;;;;;;;;;;;;24.96;45.33;95891.78;10237867;28;1932;-67
2022/08/02 02:24:39;;;;;;;;;;;;;;;24.95;45.46;95884.13;10241682;28;2034;-67
2022/08/02 02:29:42;;;;;;;;;;;;;;;24.95;45.29;95886.78;10241176;28;1964;-67
2022/08/02 02:34:43;;;;;;;;;;;;;;;24.95;45.55;95890.22;10243649;28;2013;-67
2022/08/02 02:39:45;;;;;;;;;;;;;;;24.95;45.40;95889.44;10240150;28;1976;-67
2022/08/02 02:44:45;;;;;;;;;;;;;;;24.95;45.74;95892.09;10254538;28;2024;-66
2022/08/02 02:49:47;;;;;;;;;;;;;;;24.94;45.35;95898.47;10222374;28;1972;-67
2022/08/02 02:54:48;;;;;;;;;;;;;;;24.95;45.55;95903.50;10238222;28;1940;-68
2022/08/02 02:59:48;;;;;;;;;;;;;;;24.95;45.43;95905.34;10241350;28;1962;-67
2022/08/02 03:04:49;;;;;;;;;;;;;;;24.95;45.45;95900.06;10237464;28;1951;-66
2022/08/02 03:09:49;;;;;;;;;;;;;;;24.95;45.55;95906.16;10237880;29;1893;-65
2022/08/02 03:14:50;;;;;;;;;;;;;;;24.94;45.66;95901.13;10239860;28;1977;-67
2022/08/02 03:19:50;;;;;;;;;;;;;;;24.94;45.57;95903.75;10242795;28;2024;-67
2022/08/02 03:24:51;;;;;;;;;;;;;;;24.94;45.73;95909.06;10224581;28;1981;-67
2022/08/02 03:29:52;;;;;;;;;;;;;;;24.94;45.50;95909.06;10244923;28;1972;-67
2022/08/02 03:34:52;;;;;;;;;;;;;;;24.94;45.36;95912.50;10242540;28;1929;-67
2022/08/02 03:39:53;;;;;;;;;;;;;;;24.94;45.22;95917.03;10247384;28;1977;-67
2022/08/02 03:44:54;;;;;;;;;;;;;;;24.94;45.40;95906.41;10263272;28;1957;-67
2022/08/02 03:49:55;;;;;;;;;;;;;;;24.94;45.40;95911.72;10248719;28;2115;-69
2022/08/02 03:54:55;;;;;;;;;;;;;;;24.95;45.68;95908.78;10248922;28;1914;-67
2022/08/02 03:59:55;;;;;;;;;;;;;;;24.94;45.43;95914.38;10242095;28;1956;-66
2022/08/02 04:04:56;;;;;;;;;;;;;;;24.93;45.46;95913.63;10246052;28;1966;-66
2022/08/02 04:09:56;;;;;;;;;;;;;;;24.93;45.32;95918.13;10260799;28;2337;-66
2022/08/02 04:14:57;;;;;;;;;;;;;;;24.94;45.42;95924.97;10244703;28;1984;-67
2022/08/02 04:20:01;;;;;;;;;;;;;;;24.93;45.29;95928.72;10249441;28;2016;-67
2022/08/02 04:25:02;;;;;;;;;;;;;;;24.93;45.50;95934.81;10243846;28;1896;-67
2022/08/02 04:30:03;;;;;;;;;;;;;;;24.93;45.47;95934.81;10243483;28;1980;-67
2022/08/02 04:35:04;;;;;;;;;;;;;;;24.93;45.49;95936.69;10241688;28;2322;-66
2022/08/02 04:40:11;;;;;;;;;;;;;;;24.94;45.62;95943.53;10242327;28;2371;-67
2022/08/02 04:45:11;;;;;;;;;;;;;;;24.93;45.61;95955.25;10257073;28;1987;-67
2022/08/02 04:50:13;;;;;;;;;;;;;;;24.94;45.66;95967.41;10244088;28;1942;-67
2022/08/02 04:55:13;;;;;;;;;;;;;;;24.93;45.69;95966.66;10241441;28;1972;-68
2022/08/02 05:00:13;;;;;;;;;;;;;;;24.94;45.43;95972.72;10242528;29;1933;-67
2022/08/02 05:05:14;;;;;;;;;;;;;;;24.94;45.49;95962.09;10239217;28;1988;-67
2022/08/02 05:10:15;;;;;;;;;;;;;;;24.92;45.50;95948.34;10242144;28;2174;-67
2022/08/02 05:15:18;;;;;;;;;;;;;;;24.93;45.64;95955.25;10253910;28;2004;-67
2022/08/02 05:20:18;;;;;;;;;;;;;;;24.92;45.47;95958.97;10242685;28;2027;-67
2022/08/02 05:25:19;;;;;;;;;;;;;;;24.91;45.48;95958.22;10240632;28;1937;-67
2022/08/02 05:30:19;;;;;;;;;;;;;;;24.91;45.50;95960.06;10239185;28;2080;-66
2022/08/02 05:35:20;;;;;;;;;;;;;;;24.91;45.49;95963.50;10237037;28;1999;-67
2022/08/02 05:40:21;;;;;;;;;;;;;;;24.91;45.65;95962.72;10239517;28;1932;-67
2022/08/02 05:45:21;;;;;;;;;;;;;;;24.91;45.74;95968.03;10236929;28;2032;-67
2022/08/02 05:50:22;;;;;;;;;;;;;;;24.91;45.50;95974.13;10261813;28;2010;-67
2022/08/02 05:55:26;;;;;;;;;;;;;;;24.92;45.54;95972.22;10237849;28;1976;-66
2022/08/02 06:00:27;;;;;;;;;;;;;;;24.93;45.73;95979.13;10244039;28;1983;-67
2022/08/02 06:05:28;;;;;;;;;;;;;;;24.91;45.81;95978.63;10238638;29;1966;-68
2022/08/02 06:10:28;;;;;;;;;;;;;;;24.92;45.53;95980.97;10235187;28;2095;-67
2022/08/02 06:15:29;;;;;;;;;;;;;;;24.94;45.41;95983.31;10237160;28;2011;-67
2022/08/02 06:20:35;;;;;;;;;;;;;;;24.94;45.35;95983.31;10236880;28;2470;-67
2022/08/02 06:25:36;;;;;;;;;;;;;;;24.92;45.54;95988.13;10241836;28;2035;-67
2022/08/02 06:30:37;;;;;;;;;;;;;;;24.93;45.61;95993.16;10247275;28;2453;-67
2022/08/02 06:35:43;;;;;;;;;;;;;;;24.93;45.60;95993.16;10231005;28;2002;-67
2022/08/02 06:41:02;;;;;;;;;;;;;;;24.93;45.70;95982.56;10234410;28;2002;-67
2022/08/02 06:46:02;;;;;;;;;;;;;;;24.94;45.64;95988.63;10240471;28;2043;-67
2022/08/02 06:51:03;;;;;;;;;;;;;;;24.93;45.62;95982.56;10238665;28;2024;-68
2022/08/02 06:56:03;;;;;;;;;;;;;;;24.94;45.81;95980.66;10236783;28;1966;-67
2022/08/02 07:01:08;;;;;;;;;;;;;;;24.94;45.84;95980.66;10234561;28;1934;-68
2022/08/02 07:06:08;;;;;;;;;;;;;;;24.95;45.63;95988.34;10252612;28;1962;-67
2022/08/02 07:11:09;;;;;;;;;;;;;;;24.95;45.61;95984.91;10232952;28;1971;-68
2022/08/02 07:16:10;;;;;;;;;;;;;;;24.94;45.76;95980.66;10249097;28;2095;-68
2022/08/02 07:21:12;;;;;;;;;;;;;;;24.95;45.87;95980.41;10242086;28;2000;-68
2022/08/02 07:26:12;;;;;;;;;;;;;;;24.95;45.92;95990.22;10236338;28;1855;-67
2022/08/02 07:31:12;;;;;;;;;;;;;;;24.94;45.81;95978.03;10237332;28;1961;-68
2022/08/02 07:36:13;;;;;;;;;;;;;;;24.94;45.86;95975.38;10236784;28;2055;-68
2022/08/02 07:41:13;;;;;;;;;;;;;;;24.95;45.90;95969.78;10234319;28;1934;-68
2022/08/02 07:46:13;;;;;;;;;;;;;;;24.95;45.86;95975.09;10233733;28;2117;-68
2022/08/02 07:51:14;;;;;;;;;;;;;;;24.95;45.74;95963.69;10233241;28;1960;-68
2022/08/02 07:56:14;;;;;;;;;;;;;;;24.97;45.82;95966.84;10232360;29;1911;-67
2022/08/02 08:01:15;;;;;;;;;;;;;;;24.96;45.89;95966.03;10234059;29;1955;-68
2022/08/02 08:06:15;;;;;;;;;;;;;;;24.96;46.01;95959.94;10235371;28;1919;-68
2022/08/02 08:11:15;;;;;;;;;;;;;;;24.96;45.87;95960.75;10236133;28;2057;-67
2022/08/02 08:16:15;;;;;;;;;;;;;;;24.97;45.87;95959.66;10236196;28;2010;-67
2022/08/02 08:21:16;;;;;;;;;;;;;;;24.96;46.04;95958.09;10253264;28;2003;-68
2022/08/02 08:26:16;;;;;;;;;;;;;;;24.97;46.14;95956.22;10247315;28;1940;-68
2022/08/02 08:31:18;;;;;;;;;;;;;;;24.96;46.01;95955.44;10242252;28;2120;-68
2022/08/02 08:36:20;;;;;;;;;;;;;;;24.97;45.93;95956.22;10242453;28;1949;-67
2022/08/02 08:41:20;;;;;;;;;;;;;;;24.97;45.92;95959.66;10244210;28;1873;-68
2022/08/02 08:46:27;;;;;;;;;;;;;;;24.97;46.12;95957.03;10243600;28;1872;-68
2022/08/02 08:51:34;;;;;;;;;;;;;;;24.99;46.06;95951.41;10250001;28;2009;-67
2022/08/02 08:56:35;;;;;;;;;;;;;;;24.99;46.10;95952.19;10244916;28;1857;-68
2022/08/02 09:01:35;;;;;;;;;;;;;;;24.98;46.22;95947.97;10238104;28;1845;-68
2022/08/02 09:06:37;;;;;;;;;;;;;;;25.00;45.91;95950.31;10254482;28;1805;-68
2022/08/02 09:11:38;;;;;;;;;;;;;;;25.00;46.18;95955.63;10236551;28;1914;-68
2022/08/02 09:16:40;;;;;;;;;;;;;;;25.00;46.32;95951.09;10236148;28;1762;-67
2022/08/02 09:21:40;;;;;;;;;;;;;;;25.02;46.27;95948.16;10241688;28;1868;-68
2022/08/02 09:26:46;;;;;;;;;;;;;;;25.02;46.13;95959.56;10243010;28;1831;-67
2022/08/02 09:31:47;;;;;;;;;;;;;;;25.03;46.11;95965.66;10233145;28;1910;-68
2022/08/02 09:36:48;;;;;;;;;;;;;;;25.02;46.29;95964.06;10234239;28;1866;-68
2022/08/02 09:41:48;;;;;;;;;;;;;;;25.04;46.35;95968.00;10248110;28;1949;-68
2022/08/02 09:46:48;;;;;;;;;;;;;;;25.04;46.36;95972.50;10243251;28;1883;-68
2022/08/02 09:51:49;;;;;;;;;;;;;;;25.05;46.41;95971.44;10235074;28;1918;-67
2022/08/02 09:56:50;;;;;;;;;;;;;;;25.05;46.09;95966.13;10238850;28;1893;-68
2022/08/02 10:01:51;;;;;;;;;;;;;;;25.04;46.16;95956.59;10238429;28;1834;-68
2022/08/02 10:06:53;;;;;;;;;;;;;;;25.06;46.21;95959.72;10245025;28;1818;-68
2022/08/02 10:11:55;;;;;;;;;;;;;;;25.06;46.32;95956.31;10233377;28;1998;-68
2022/08/02 10:16:57;;;;;;;;;;;;;;;25.07;46.12;95953.38;10236792;28;1958;-68
2022/08/02 10:22:04;;;;;;;;;;;;;;;25.07;46.12;95956.00;10241964;28;1859;-68
2022/08/02 10:27:05;;;;;;;;;;;;;;;25.08;46.09;95951.50;10257515;28;1895;-68
2022/08/02 10:32:07;;;;;;;;;;;;;;;25.07;46.27;95949.91;10237525;28;1962;-68
2022/08/02 10:37:07;;;;;;;;;;;;;;;25.08;45.91;95952.25;10247596;28;1814;-68
2022/08/02 10:42:07;;;;;;;;;;;;;;;25.09;46.10;95947.75;10237079;28;1872;-68
2022/08/02 10:47:14;;;;;;;;;;;;;;;25.10;46.11;95936.84;10233530;28;1791;-68
2022/08/02 10:52:15;;;;;;;;;;;;;;;25.10;46.22;95936.84;10239150;28;2097;-68
2022/08/02 10:57:25;;;;;;;;;;;;;;;25.12;46.27;95937.34;10236316;28;1767;-68
2022/08/02 11:02:36;;;;;;;;;;;;;;;25.13;46.18;95930.16;10239526;28;1915;-68
2022/08/02 11:07:37;;;;;;;;;;;;;;;25.13;46.40;95928.31;10237788;28;2148;-68
2022/08/02 11:12:56;;;;;;;;;;;;;;;25.15;46.34;95922.69;10233016;28;2240;-68
2022/08/02 11:17:58;;;;;;;;;;;;;;;25.15;46.22;95912.88;10230821;28;1801;-68
2022/08/02 11:23:18;;;;;;;;;;;;;;;25.15;46.23;95909.41;10242156;28;1852;-68
2022/08/02 11:28:18;;;;;;;;;;;;;;;25.16;46.15;95898.53;10236524;28;1884;-68
2022/08/02 11:33:18;;;;;;;;;;;;;;;25.17;46.39;95892.13;10235162;29;1980;-68
2022/08/02 11:38:19;;;;;;;;;;;;;;;25.19;46.48;95897.13;10234585;28;1938;-68
2022/08/02 11:43:21;;;;;;;;;;;;;;;25.20;46.44;95891.53;10232969;28;1818;-68
2022/08/02 11:48:37;;;;;;;;;;;;;;;25.20;46.33;95891.53;10236867;28;1828;-68
2022/08/02 11:53:43;;;;;;;;;;;;;;;25.20;46.30;95893.41;10232851;28;1922;-68
2022/08/02 11:59:19;;;;;;;;;;;;;;;25.19;46.02;95889.16;10244329;28;1843;-68
2022/08/02 12:04:20;;;;;;;;;;;;;;;25.19;46.29;95892.63;10150570;29;1778;-68
2022/08/02 12:09:21;;;;;;;;;;;;;;;25.21;46.39;95901.06;10258817;28;1806;-68
2022/08/02 12:14:23;;;;;;;;;;;;;;;25.22;46.33;95902.66;10244741;28;1962;-67
2022/08/02 12:19:26;;;;;;;;;;;;;;;25.22;46.63;95902.66;10244636;28;1822;-68
2022/08/02 12:24:27;;;;;;;;;;;;;;;25.22;46.66;95896.53;10242032;28;1845;-68
2022/08/02 12:29:28;;;;;;;;;;;;;;;25.22;46.60;95894.69;10240215;29;1877;-68
2022/08/02 12:34:28;;;;;;;;;;;;;;;25.24;46.83;95887.22;10254097;28;1972;-69
2022/08/02 12:39:42;;;;;;;;;;;;;;;25.26;46.87;95884.25;10252707;28;2405;-68
2022/08/02 12:44:49;;;;;;;;;;;;;;;25.26;47.00;95879.72;10242924;28;1888;-68
2022/08/02 12:50:08;;;;;;;;;;;;;;;25.26;46.60;95869.13;10226613;28;1849;-68
2022/08/02 12:55:19;;;;;;;;;;;;;;;25.25;46.60;95861.44;10242298;28;1967;-68
2022/08/02 13:00:23;;;;;;;;;;;;;;;25.25;46.75;95861.44;10244204;28;1795;-68
2022/08/02 13:05:23;;;;;;;;;;;;;;;25.27;46.97;95856.63;10242311;28;1840;-69
2022/08/02 13:10:24;;;;;;;;;;;;;;;25.30;46.83;95856.81;10242558;28;1858;-68
2022/08/02 13:15:24;;;;;;;;;;;;;;;25.30;46.82;95853.38;10238573;28;1918;-68
2022/08/02 13:20:26;;;;;;;;;;;;;;;25.31;46.81;95854.94;10255587;28;1918;-68
2022/08/02 13:25:26;;;;;;;;;;;;;;;25.32;46.82;95851.22;10238406;28;1799;-68
2022/08/02 13:30:27;;;;;;;;;;;;;;;25.32;47.01;95845.91;10241387;28;1874;-68
2022/08/02 13:35:27;;;;;;;;;;;;;;;25.32;47.06;95835.28;10240106;28;1971;-68
2022/08/02 13:40:28;;;;;;;;;;;;;;;25.32;47.00;95841.38;10233747;28;1973;-67
2022/08/02 13:45:28;;;;;;;;;;;;;;;25.32;47.00;95822.81;10240699;29;1791;-68
2022/08/02 13:50:29;;;;;;;;;;;;;;;25.32;46.86;95825.47;10253896;28;1921;-69
2022/08/02 13:55:30;;;;;;;;;;;;;;;25.32;46.94;95820.16;10241493;28;1975;-68
2022/08/02 14:00:30;;;;;;;;;;;;;;;25.33;46.91;95810.31;10237387;28;1787;-68
2022/08/02 14:05:32;;;;;;;;;;;;;;;25.33;46.83;95811.09;10240418;28;1814;-66
2022/08/02 14:10:32;;;;;;;;;;;;;;;25.34;47.13;95804.72;10238292;28;1857;-67
2022/08/02 14:15:32;;;;;;;;;;;;;;;25.35;46.92;95814.22;10240063;28;1965;-67
2022/08/02 14:20:33;;;;;;;;;;;;;;;25.34;46.89;95804.72;10237859;28;1798;-67
2022/08/02 14:25:33;;;;;;;;;;;;;;;25.34;47.02;95796.75;10252266;28;1889;-67
2022/08/02 14:30:34;;;;;;;;;;;;;;;25.35;46.99;95792.25;10240749;29;1945;-67
2022/08/02 14:35:34;;;;;;;;;;;;;;;25.35;46.92;95800.97;10239728;28;1974;-65
2022/08/02 14:40:35;;;;;;;;;;;;;;;25.36;46.91;95799.09;10239294;28;1856;-67
2022/08/02 14:45:35;;;;;;;;;;;;;;;25.36;46.80;95794.59;10239646;29;1842;-67
2022/08/02 14:50:36;;;;;;;;;;;;;;;25.36;46.91;95794.59;10241667;28;1927;-67
2022/08/02 14:55:36;;;;;;;;;;;;;;;25.37;46.86;95790.06;10257685;28;1910;-67
2022/08/02 15:00:36;;;;;;;;;;;;;;;25.37;46.78;95792.72;10238962;28;1783;-67
2022/08/02 15:05:37;;;;;;;;;;;;;;;25.36;46.98;95797.25;10237051;28;1849;-67
2022/08/02 15:10:37;;;;;;;;;;;;;;;25.37;46.98;95795.38;10237236;28;1946;-67
2022/08/02 15:15:38;;;;;;;;;;;;;;;25.37;46.68;95800.69;10251477;28;1972;-67
2022/08/02 15:20:38;;;;;;;;;;;;;;;25.36;46.66;95797.25;10251334;28;1910;-67
2022/08/02 15:25:38;;;;;;;;;;;;;;;25.36;46.74;95799.09;10235844;28;1886;-67
2022/08/02 15:30:40;;;;;;;;;;;;;;;25.36;46.93;95797.25;10245717;28;1847;-66
2022/08/02 15:35:40;;;;;;;;;;;;;;;25.37;46.77;95792.72;10234199;28;1977;-67
2022/08/02 15:40:41;;;;;;;;;;;;;;;25.38;46.74;95794.28;10231615;28;1792;-68
2022/08/02 15:45:41;;;;;;;;;;;;;;;25.37;46.88;95790.81;10238061;28;2263;-68
2022/08/02 15:50:42;;;;;;;;;;;;;;;25.37;46.82;95790.81;10236906;28;2177;-67
2022/08/02 15:55:42;;;;;;;;;;;;;;;25.39;46.85;95787.91;10236217;28;1914;-68
2022/08/02 16:00:43;;;;;;;;;;;;;;;25.38;46.62;95792.41;10238266;28;2244;-68
2022/08/02 16:05:43;;;;;;;;;;;;;;;25.38;46.72;95787.09;10234762;28;1817;-68
2022/08/02 16:10:43;;;;;;;;;;;;;;;25.39;46.74;95790.53;10250033;28;2111;-69
2022/08/02 16:15:44;;;;;;;;;;;;;;;25.39;46.65;95790.53;10229313;28;2156;-69
2022/08/02 16:20:45;;;;;;;;;;;;;;;25.38;46.62;95795.06;10253913;28;2199;-67
2022/08/02 16:25:47;;;;;;;;;;;;;;;25.39;46.74;95779.94;10233798;28;1806;-68
2022/08/02 16:30:47;;;;;;;;;;;;;;;25.39;46.79;95779.94;10237317;28;2016;-69
2022/08/02 16:35:47;;;;;;;;;;;;;;;25.39;46.69;95770.06;10237127;28;1918;-69
2022/08/02 16:40:48;;;;;;;;;;;;;;;25.39;46.80;95770.06;10235146;28;2069;-68
2022/08/02 16:45:48;;;;;;;;;;;;;;;25.39;46.88;95767.44;10244105;28;1845;-69
2022/08/02 16:50:49;;;;;;;;;;;;;;;25.40;46.72;95762.91;10237931;29;1824;-69
2022/08/02 16:55:49;;;;;;;;;;;;;;;25.39;46.69;95762.13;10243377;28;1911;-68
2022/08/02 17:00:50;;;;;;;;;;;;;;;25.40;46.85;95768.22;10245036;28;1901;-68
2022/08/02 17:05:50;;;;;;;;;;;;;;;25.40;46.89;95770.88;10237603;28;1811;-68
2022/08/02 17:10:51;;;;;;;;;;;;;;;25.40;46.80;95782.28;10243865;28;1861;-67
2022/08/02 17:15:51;;;;;;;;;;;;;;;25.40;46.77;95774.31;10241089;28;1927;-67
2022/08/02 17:20:51;;;;;;;;;;;;;;;25.41;46.65;95775.13;10243745;28;1841;-67
2022/08/02 17:25:52;;;;;;;;;;;;;;;25.41;46.69;95777.78;10241552;28;1941;-68
2022/08/02 17:30:52;;;;;;;;;;;;;;;25.40;46.76;95771.66;10245511;28;1994;-67
2022/08/02 17:35:53;;;;;;;;;;;;;;;25.41;47.08;95775.13;10245193;28;1864;-68
2022/08/02 17:40:53;;;;;;;;;;;;;;;25.40;46.76;95771.66;10241918;28;1858;-67
2022/08/02 17:45:55;;;;;;;;;;;;;;;25.41;46.97;95775.91;10241905;28;1834;-68
2022/08/02 17:50:55;;;;;;;;;;;;;;;25.41;46.98;95778.56;10255331;28;2017;-67
2022/08/02 17:55:55;;;;;;;;;;;;;;;25.41;47.04;95778.56;10241184;28;2242;-67
2022/08/02 18:00:56;;;;;;;;;;;;;;;25.41;46.78;95783.09;10255992;28;1857;-67
2022/08/02 18:05:57;;;;;;;;;;;;;;;25.42;46.77;95787.31;10242218;28;2226;-67
2022/08/02 18:10:58;;;;;;;;;;;;;;;25.41;46.72;95786.50;10245416;28;2270;-67
2022/08/02 18:15:58;;;;;;;;;;;;;;;25.41;47.00;95786.50;10256912;28;1843;-65
2022/08/02 18:20:59;;;;;;;;;;;;;;;25.41;46.85;95781.19;10273671;28;1885;-68
2022/08/02 18:26:03;;;;;;;;;;;;;;;25.41;46.71;95775.91;10252331;28;1830;-68
2022/08/02 18:31:04;;;;;;;;;;;;;;;25.42;46.69;95785.44;10230756;29;1906;-68
2022/08/02 18:36:05;;;;;;;;;;;;;;;25.41;46.70;95786.50;10264102;28;1764;-67
2022/08/02 18:41:06;;;;;;;;;;;;;;;25.43;47.05;95794.19;10248187;28;1869;-67
2022/08/02 18:46:07;;;;;;;;;;;;;;;25.42;46.85;95793.41;10247326;29;1812;-66
2022/08/02 18:51:07;;;;;;;;;;;;;;;25.42;46.65;95797.91;10253653;28;1974;-69
2022/08/02 18:56:11;;;;;;;;;;;;;;;25.42;46.75;95801.38;10236943;28;2054;-68
2022/08/02 19:01:12;;;;;;;;;;;;;;;25.41;46.81;95797.13;10239399;28;1877;-67
2022/08/02 19:06:12;;;;;;;;;;;;;;;25.42;46.84;95798.72;10240743;28;1837;-68
2022/08/02 19:11:12;;;;;;;;;;;;;;;25.41;46.98;95799.78;10240144;28;1910;-70
2022/08/02 19:16:13;;;;;;;;;;;;;;;25.42;46.88;95798.72;10238547;28;1835;-68
2022/08/02 19:21:14;;;;;;;;;;;;;;;25.42;47.01;95793.41;10238091;28;1810;-67
2022/08/02 19:26:15;;;;;;;;;;;;;;;25.43;46.74;95797.59;10238550;28;1918;-68
2022/08/02 19:31:16;;;;;;;;;;;;;;;25.42;46.79;95798.72;10237482;28;1967;-68
2022/08/02 19:36:16;;;;;;;;;;;;;;;25.43;46.88;95810.88;10236286;28;1921;-68
2022/08/02 19:41:18;;;;;;;;;;;;;;;25.42;46.82;95811.97;10236939;28;1866;-69
2022/08/02 19:46:21;;;;;;;;;;;;;;;25.43;46.90;95818.06;10234985;28;1898;-69
2022/08/02 19:51:22;;;;;;;;;;;;;;;25.42;46.87;95819.94;10239302;28;1929;-69
2022/08/02 19:56:23;;;;;;;;;;;;;;;25.43;46.85;95821.50;10242907;28;1792;-68
2022/08/02 20:01:23;;;;;;;;;;;;;;;25.43;46.77;95831.34;10234580;28;1834;-68
2022/08/02 20:06:24;;;;;;;;;;;;;;;25.42;46.79;95825.25;10237011;28;1895;-68
2022/08/02 20:11:24;;;;;;;;;;;;;;;25.43;46.67;95824.16;10253348;28;2448;-68
2022/08/02 20:16:25;;;;;;;;;;;;;;;25.43;46.66;95823.38;10241913;28;1849;-68
2022/08/02 20:21:25;;;;;;;;;;;;;;;25.43;46.57;95826.03;10247638;28;1876;-72
2022/08/02 20:26:29;;;;;;;;;;;;;;;25.42;46.71;95825.25;10240591;28;1777;-70
2022/08/02 20:31:36;;;;;;;;;;;;;;;25.42;46.79;95825.25;10245852;28;1926;-68
2022/08/02 20:36:37;;;;;;;;;;;;;;;25.42;46.76;95819.94;10247673;28;1879;-69
2022/08/02 20:41:39;;;;;;;;;;;;;;;25.42;46.67;95817.28;10246012;28;2010;-70
2022/08/02 20:46:39;;;;;;;;;;;;;;;25.43;46.92;95815.44;10237087;28;1836;-69
2022/08/02 20:51:40;;;;;;;;;;;;;;;25.42;46.83;95821.81;10254918;28;1978;-69
2022/08/02 20:56:40;;;;;;;;;;;;;;;25.42;46.79;95814.63;10242383;28;1799;-69
2022/08/02 21:01:40;;;;;;;;;;;;;;;25.43;46.68;95815.44;10242928;28;1836;-69
2022/08/02 21:06:41;;;;;;;;;;;;;;;25.42;46.74;95814.63;10240441;28;1849;-69
2022/08/02 21:11:41;;;;;;;;;;;;;;;25.42;46.79;95817.28;10242110;28;1970;-69
2022/08/02 21:16:42;;;;;;;;;;;;;;;25.42;46.68;95814.63;10243025;28;1892;-69
2022/08/02 21:21:42;;;;;;;;;;;;;;;25.41;46.93;95810.41;10238031;28;1962;-66
2022/08/02 21:26:42;;;;;;;;;;;;;;;25.42;46.77;95803.22;10242189;28;1884;-67
2022/08/02 21:31:43;;;;;;;;;;;;;;;25.41;46.69;95802.44;10240262;28;1984;-68
2022/08/02 21:36:43;;;;;;;;;;;;;;;25.42;46.70;95808.53;10238683;28;1818;-69
2022/08/02 21:41:44;;;;;;;;;;;;;;;25.42;46.69;95796.06;10242738;28;1799;-69
2022/08/02 21:46:45;;;;;;;;;;;;;;;25.42;46.83;95789.97;10242678;28;1809;-68
2022/08/02 21:51:46;;;;;;;;;;;;;;;25.42;46.68;95797.91;10241936;28;1968;-66
2022/08/02 21:56:50;;;;;;;;;;;;;;;25.42;46.52;95795.25;10257872;28;1847;-67
2022/08/02 22:01:50;;;;;;;;;;;;;;;25.42;46.57;95792.59;10236101;28;1840;-67
2022/08/02 22:06:50;;;;;;;;;;;;;;;25.42;46.75;95788.09;10242616;28;1866;-68
2022/08/02 22:11:51;;;;;;;;;;;;;;;25.41;46.51;95796.38;10241408;28;1906;-69
2022/08/02 22:16:53;;;;;;;;;;;;;;;25.41;46.68;95794.47;10234665;28;1930;-68
2022/08/02 22:21:54;;;;;;;;;;;;;;;25.41;46.63;95802.44;10243167;28;1775;-67
2022/08/02 22:26:54;;;;;;;;;;;;;;;25.42;46.67;95804.03;10238981;28;1799;-67
2022/08/02 22:31:56;;;;;;;;;;;;;;;25.41;46.67;95809.63;10241713;28;1966;-68
2022/08/02 22:36:56;;;;;;;;;;;;;;;25.41;46.64;95810.41;10240457;28;1812;-67
2022/08/02 22:41:58;;;;;;;;;;;;;;;25.41;46.50;95813.06;10238615;28;1865;-68
2022/08/02 22:46:58;;;;;;;;;;;;;;;25.42;46.53;95811.97;10237076;28;1912;-68
2022/08/02 22:51:59;;;;;;;;;;;;;;;25.41;46.72;95813.06;10252975;28;1997;-68
2022/08/02 22:56:59;;;;;;;;;;;;;;;25.41;46.67;95818.34;10237790;28;1812;-67
2022/08/02 23:02:04;;;;;;;;;;;;;;;25.41;46.75;95821.00;10233457;28;1832;-68
2022/08/02 23:07:04;;;;;;;;;;;;;;;25.42;46.61;95819.16;10238466;29;1789;-68
2022/08/02 23:12:05;;;;;;;;;;;;;;;25.41;46.64;95813.06;10237526;28;1914;-68
2022/08/02 23:22:25;;;;;;;;;;;;;;;25.41;46.62;95813.06;10249404;28;1870;-68
2022/08/02 23:27:25;;;;;;;;;;;;;;;25.42;46.50;95819.16;10236393;28;1889;-67
2022/08/02 23:32:26;;;;;;;;;;;;;;;25.40;46.36;95811.47;10232599;28;1974;-68
2022/08/02 23:37:27;;;;;;;;;;;;;;;25.41;46.62;95814.94;10235272;28;1887;-68
2022/08/02 23:42:27;;;;;;;;;;;;;;;25.41;46.48;95812.28;10235825;28;1814;-68
2022/08/02 23:47:29;;;;;;;;;;;;;;;25.40;46.54;95814.13;10235770;28;1807;-67
2022/08/02 23:52:29;;;;;;;;;;;;;;;25.40;46.37;95815.97;10242939;28;1981;-67
2022/08/02 23:57:29;;;;;;;;;;;;;;;25.40;46.36;95811.47;10244736;28;1860;-69
